IBE14N HAAB-OEMA
Flight info
| Callsign | IBE14N |
|---|---|
| Flight time | N/A |
| Altitude | 36000 |
| Route | EKBOB1A EKBOB DCT KONET/N0447F370 UG650 RASKA/N0446F360 T513 EGMEG/N0439F370 T513 JDW A424 DEGVU |
| Aircraft | A320/M-SDE3FGHIRWY/LB1 |
Departure
| Time | 2026-05-05 10:23 |
|---|---|
| Airport | Addis Ababa Bole International Airport (HAAB) |
Arrival
| Time | N/A |
|---|---|
| Airport | Prince Mohammad Bin Abdulaziz Airport (OEMA) |
| Time | Latitude | Longitude | Altitude | Speed | Heading |
|---|---|---|---|---|---|
| 2026-05-05 10:01 | 8.98283 | 38.79775 | 7610 ft | 0 kts | 343° |
| 2026-05-05 10:06 | 8.98281 | 38.79775 | 7616 ft | 1 kts | 343° |
| 2026-05-05 10:06 | 8.98264 | 38.79780 | 7643 ft | 3 kts | 341° |
| 2026-05-05 10:07 | 8.98246 | 38.79787 | 7616 ft | 2 kts | 342° |
| 2026-05-05 10:07 | 8.98228 | 38.79793 | 7616 ft | 3 kts | 323° |
| 2026-05-05 10:07 | 8.98216 | 38.79807 | 7616 ft | 3 kts | 285° |
| 2026-05-05 10:07 | 8.98214 | 38.79827 | 7616 ft | 3 kts | 258° |
| 2026-05-05 10:08 | 8.98217 | 38.79839 | 7616 ft | 1 kts | 254° |
| 2026-05-05 10:08 | 8.98217 | 38.79841 | 7616 ft | 0 kts | 254° |
| 2026-05-05 10:12 | 8.98211 | 38.79820 | 7616 ft | 14 kts | 253° |
| 2026-05-05 10:12 | 8.98151 | 38.79621 | 7617 ft | 36 kts | 253° |
| 2026-05-05 10:12 | 8.98083 | 38.79381 | 7619 ft | 35 kts | 252° |
| 2026-05-05 10:13 | 8.98039 | 38.79225 | 7620 ft | 35 kts | 255° |
| 2026-05-05 10:13 | 8.97977 | 38.78993 | 7621 ft | 34 kts | 253° |
| 2026-05-05 10:13 | 8.97929 | 38.78789 | 7622 ft | 22 kts | 283° |
| 2026-05-05 10:13 | 8.97924 | 38.78724 | 7624 ft | 0 kts | 171° |
| 2026-05-05 10:21 | 8.97908 | 38.78726 | 7623 ft | 11 kts | 171° |
| 2026-05-05 10:21 | 8.97726 | 38.78777 | 7623 ft | 35 kts | 165° |
| 2026-05-05 10:21 | 8.97551 | 38.78899 | 7624 ft | 29 kts | 109° |
| 2026-05-05 10:21 | 8.97499 | 38.79090 | 7619 ft | 27 kts | 106° |
| 2026-05-05 10:22 | 8.97509 | 38.79296 | 7619 ft | 45 kts | 75° |
| 2026-05-05 10:22 | 8.97653 | 38.79798 | 7615 ft | 102 kts | 73° |
| 2026-05-05 10:22 | 8.97907 | 38.80641 | 7609 ft | 147 kts | 75° |
| 2026-05-05 10:22 | 8.98207 | 38.81696 | 7952 ft | 157 kts | 79° |
| 2026-05-05 10:23 | 8.98496 | 38.82755 | 8555 ft | 158 kts | 77° |
| 2026-05-05 10:23 | 8.98791 | 38.83861 | 8774 ft | 168 kts | 75° |
| 2026-05-05 10:23 | 8.99108 | 38.85044 | 8875 ft | 181 kts | 74° |
| 2026-05-05 10:23 | 8.99456 | 38.86339 | 8976 ft | 200 kts | 75° |
| 2026-05-05 10:24 | 8.99836 | 38.87752 | 9149 ft | 216 kts | 75° |
| 2026-05-05 10:24 | 9.00250 | 38.89271 | 9372 ft | 233 kts | 75° |
| 2026-05-05 10:24 | 9.00699 | 38.90912 | 9642 ft | 250 kts | 76° |
| 2026-05-05 10:24 | 9.01178 | 38.92659 | 9935 ft | 266 kts | 75° |
| 2026-05-05 10:25 | 9.01688 | 38.94512 | 10320 ft | 279 kts | 74° |
| 2026-05-05 10:25 | 9.02220 | 38.96444 | 10631 ft | 293 kts | 74° |
| 2026-05-05 10:25 | 9.02782 | 38.98484 | 10884 ft | 309 kts | 74° |
| 2026-05-05 10:25 | 9.03374 | 39.00632 | 11151 ft | 324 kts | 74° |
| 2026-05-05 10:26 | 9.03985 | 39.02856 | 11571 ft | 331 kts | 74° |
| 2026-05-05 10:26 | 9.04610 | 39.05107 | 12164 ft | 333 kts | 71° |
| 2026-05-05 10:26 | 9.05733 | 39.07139 | 12796 ft | 335 kts | 46° |
| 2026-05-05 10:26 | 9.07644 | 39.08483 | 13418 ft | 339 kts | 26° |
| 2026-05-05 10:27 | 9.09873 | 39.09306 | 13987 ft | 344 kts | 18° |
| 2026-05-05 10:27 | 9.12165 | 39.09940 | 14484 ft | 347 kts | 17° |
| 2026-05-05 10:27 | 9.14505 | 39.10605 | 14980 ft | 351 kts | 19° |
| 2026-05-05 10:27 | 9.16834 | 39.11387 | 15484 ft | 354 kts | 21° |
| 2026-05-05 10:28 | 9.19140 | 39.12290 | 16005 ft | 357 kts | 24° |
| 2026-05-05 10:28 | 9.21439 | 39.13291 | 16516 ft | 361 kts | 26° |
| 2026-05-05 10:28 | 9.23737 | 39.14349 | 17023 ft | 365 kts | 26° |
| 2026-05-05 10:28 | 9.26056 | 39.15419 | 17552 ft | 368 kts | 24° |
| 2026-05-05 10:29 | 9.28533 | 39.16162 | 18049 ft | 374 kts | 12° |
| 2026-05-05 10:29 | 9.31138 | 39.16452 | 18500 ft | 380 kts | 7° |
| 2026-05-05 10:29 | 9.33791 | 39.16674 | 18923 ft | 384 kts | 6° |
| 2026-05-05 10:29 | 9.36455 | 39.16888 | 19373 ft | 386 kts | 6° |
| 2026-05-05 10:30 | 9.39148 | 39.17106 | 19814 ft | 389 kts | 6° |
| 2026-05-05 10:30 | 9.41857 | 39.17331 | 20266 ft | 392 kts | 6° |
| 2026-05-05 10:30 | 9.44584 | 39.17560 | 20708 ft | 395 kts | 6° |
| 2026-05-05 10:30 | 9.47334 | 39.17793 | 21159 ft | 398 kts | 6° |
| 2026-05-05 10:31 | 9.50107 | 39.18027 | 21597 ft | 401 kts | 6° |
| 2026-05-05 10:31 | 9.52893 | 39.18258 | 22039 ft | 404 kts | 5° |
| 2026-05-05 10:31 | 9.55705 | 39.18491 | 22473 ft | 406 kts | 5° |
| 2026-05-05 10:31 | 9.58532 | 39.18729 | 22892 ft | 409 kts | 5° |
| 2026-05-05 10:32 | 9.61374 | 39.18970 | 23315 ft | 412 kts | 5° |
| 2026-05-05 10:32 | 9.64202 | 39.19212 | 23682 ft | 414 kts | 5° |
| 2026-05-05 10:32 | 9.67088 | 39.19458 | 24009 ft | 417 kts | 5° |
| 2026-05-05 10:32 | 9.69980 | 39.19702 | 24340 ft | 419 kts | 5° |
| 2026-05-05 10:33 | 9.72899 | 39.19947 | 24661 ft | 421 kts | 5° |
| 2026-05-05 10:33 | 9.75824 | 39.20194 | 24976 ft | 423 kts | 4° |
| 2026-05-05 10:33 | 9.78763 | 39.20442 | 25297 ft | 425 kts | 4° |
| 2026-05-05 10:33 | 9.81721 | 39.20688 | 25605 ft | 427 kts | 4° |
| 2026-05-05 10:34 | 9.84687 | 39.20936 | 25911 ft | 429 kts | 4° |
| 2026-05-05 10:34 | 9.87667 | 39.21186 | 26212 ft | 431 kts | 4° |
| 2026-05-05 10:34 | 9.90665 | 39.21441 | 26498 ft | 433 kts | 4° |
| 2026-05-05 10:34 | 9.93679 | 39.21698 | 26784 ft | 435 kts | 4° |
| 2026-05-05 10:35 | 9.96708 | 39.21954 | 27068 ft | 437 kts | 4° |
| 2026-05-05 10:35 | 9.99746 | 39.22209 | 27353 ft | 439 kts | 4° |
| 2026-05-05 10:35 | 10.02796 | 39.22465 | 27631 ft | 441 kts | 4° |
| 2026-05-05 10:35 | 10.05860 | 39.22725 | 27909 ft | 443 kts | 4° |
| 2026-05-05 10:36 | 10.08945 | 39.22986 | 28177 ft | 445 kts | 4° |
| 2026-05-05 10:36 | 10.12036 | 39.23247 | 28446 ft | 447 kts | 4° |
| 2026-05-05 10:36 | 10.15147 | 39.23507 | 28706 ft | 449 kts | 4° |
| 2026-05-05 10:36 | 10.18267 | 39.23769 | 28969 ft | 451 kts | 4° |
| 2026-05-05 10:37 | 10.21399 | 39.24035 | 29222 ft | 453 kts | 4° |
| 2026-05-05 10:37 | 10.24549 | 39.24302 | 29471 ft | 455 kts | 4° |
| 2026-05-05 10:37 | 10.27708 | 39.24568 | 29731 ft | 457 kts | 4° |
| 2026-05-05 10:37 | 10.30883 | 39.24837 | 29975 ft | 459 kts | 4° |
| 2026-05-05 10:38 | 10.34071 | 39.25109 | 30173 ft | 460 kts | 4° |
| 2026-05-05 10:38 | 10.37226 | 39.25379 | 30377 ft | 462 kts | 4° |
| 2026-05-05 10:38 | 10.40433 | 39.25646 | 30577 ft | 463 kts | 4° |
| 2026-05-05 10:38 | 10.43646 | 39.25909 | 30770 ft | 464 kts | 4° |
| 2026-05-05 10:39 | 10.46871 | 39.26175 | 30951 ft | 466 kts | 4° |
| 2026-05-05 10:39 | 10.50101 | 39.26441 | 31169 ft | 466 kts | 4° |
| 2026-05-05 10:39 | 10.53331 | 39.26710 | 31439 ft | 465 kts | 4° |
| 2026-05-05 10:39 | 10.56553 | 39.26984 | 31720 ft | 464 kts | 4° |
| 2026-05-05 10:40 | 10.59773 | 39.27262 | 31990 ft | 464 kts | 4° |
| 2026-05-05 10:40 | 10.62987 | 39.27537 | 32272 ft | 464 kts | 4° |
| 2026-05-05 10:40 | 10.66201 | 39.27809 | 32558 ft | 463 kts | 4° |
| 2026-05-05 10:40 | 10.69408 | 39.28079 | 32838 ft | 463 kts | 4° |
| 2026-05-05 10:41 | 10.72621 | 39.28119 | 33110 ft | 461 kts | 355° |
| 2026-05-05 10:41 | 10.75825 | 39.27915 | 33369 ft | 461 kts | 355° |
| 2026-05-05 10:41 | 10.79028 | 39.27713 | 33641 ft | 461 kts | 355° |
| 2026-05-05 10:41 | 10.82227 | 39.27513 | 33898 ft | 461 kts | 355° |
| 2026-05-05 10:42 | 10.88631 | 39.27122 | 34379 ft | 460 kts | 356° |
| 2026-05-05 10:42 | 10.91825 | 39.26926 | 34609 ft | 460 kts | 356° |
| 2026-05-05 10:42 | 10.94981 | 39.26733 | 34818 ft | 460 kts | 356° |
| 2026-05-05 10:43 | 10.98167 | 39.26536 | 35028 ft | 459 kts | 356° |
| 2026-05-05 10:43 | 11.01358 | 39.26338 | 35226 ft | 459 kts | 356° |
| 2026-05-05 10:43 | 11.04541 | 39.26137 | 35427 ft | 459 kts | 356° |
| 2026-05-05 10:43 | 11.07731 | 39.25936 | 35628 ft | 458 kts | 356° |
| 2026-05-05 10:44 | 11.10911 | 39.25739 | 35827 ft | 458 kts | 356° |
| 2026-05-05 10:44 | 11.14090 | 39.25543 | 35998 ft | 458 kts | 356° |
| 2026-05-05 10:44 | 11.17259 | 39.25349 | 36056 ft | 454 kts | 356° |
| 2026-05-05 10:45 | 11.23553 | 39.24962 | 36051 ft | 453 kts | 356° |
| 2026-05-05 10:45 | 11.29843 | 39.24567 | 36041 ft | 453 kts | 356° |
| 2026-05-05 10:46 | 11.36142 | 39.24179 | 36036 ft | 454 kts | 356° |
| 2026-05-05 10:46 | 11.42440 | 39.23733 | 36027 ft | 453 kts | 354° |
| 2026-05-05 10:47 | 11.48707 | 39.23050 | 36033 ft | 454 kts | 352° |
| 2026-05-05 10:47 | 11.54987 | 39.22284 | 36036 ft | 454 kts | 353° |
| 2026-05-05 10:48 | 11.61224 | 39.21580 | 36042 ft | 454 kts | 353° |
| 2026-05-05 10:48 | 11.67506 | 39.20916 | 36051 ft | 454 kts | 353° |
| 2026-05-05 10:49 | 11.73754 | 39.20254 | 36073 ft | 450 kts | 353° |
| 2026-05-05 10:49 | 11.79983 | 39.19582 | 36067 ft | 450 kts | 353° |
| 2026-05-05 10:50 | 11.86213 | 39.18907 | 36065 ft | 450 kts | 353° |
| 2026-05-05 10:50 | 11.92417 | 39.18231 | 36069 ft | 450 kts | 353° |
| 2026-05-05 10:51 | 11.98668 | 39.17549 | 36063 ft | 450 kts | 353° |
| 2026-05-05 10:51 | 12.04903 | 39.16870 | 36055 ft | 450 kts | 353° |
| 2026-05-05 10:52 | 12.11131 | 39.16194 | 36043 ft | 450 kts | 353° |
| 2026-05-05 10:52 | 12.17369 | 39.15510 | 36036 ft | 450 kts | 353° |
| 2026-05-05 10:53 | 12.23606 | 39.14843 | 36029 ft | 451 kts | 353° |
| 2026-05-05 10:53 | 12.29845 | 39.14178 | 36019 ft | 451 kts | 353° |
| 2026-05-05 10:54 | 12.36049 | 39.13508 | 36011 ft | 451 kts | 353° |
| 2026-05-05 10:54 | 12.42293 | 39.12824 | 36001 ft | 451 kts | 353° |
| 2026-05-05 10:55 | 12.48540 | 39.12140 | 35989 ft | 451 kts | 353° |
| 2026-05-05 10:55 | 12.54781 | 39.11459 | 35975 ft | 452 kts | 353° |
| 2026-05-05 10:56 | 12.61037 | 39.10772 | 35964 ft | 452 kts | 353° |
| 2026-05-05 10:56 | 12.67290 | 39.10089 | 35954 ft | 452 kts | 353° |
| 2026-05-05 10:57 | 12.73543 | 39.09414 | 35940 ft | 452 kts | 353° |
| 2026-05-05 10:57 | 12.79797 | 39.08737 | 35934 ft | 452 kts | 353° |
| 2026-05-05 10:58 | 12.86047 | 39.08041 | 35918 ft | 452 kts | 352° |
| 2026-05-05 10:58 | 12.92300 | 39.07349 | 35910 ft | 452 kts | 353° |
| 2026-05-05 10:59 | 12.98520 | 39.06663 | 35904 ft | 452 kts | 353° |
| 2026-05-05 10:59 | 13.04817 | 39.05970 | 35902 ft | 452 kts | 353° |
| 2026-05-05 11:00 | 13.11072 | 39.05286 | 35900 ft | 452 kts | 353° |
| 2026-05-05 11:00 | 13.17293 | 39.04613 | 35895 ft | 452 kts | 353° |
| 2026-05-05 11:01 | 13.23557 | 39.03941 | 35892 ft | 453 kts | 353° |
| 2026-05-05 11:01 | 13.29824 | 39.03258 | 35898 ft | 453 kts | 353° |
| 2026-05-05 11:02 | 13.36092 | 39.02567 | 35901 ft | 453 kts | 352° |
| 2026-05-05 11:02 | 13.42353 | 39.01879 | 35905 ft | 453 kts | 352° |
| 2026-05-05 11:03 | 13.48617 | 39.01191 | 35918 ft | 453 kts | 353° |
| 2026-05-05 11:03 | 13.54879 | 39.00506 | 35912 ft | 453 kts | 353° |
| 2026-05-05 11:04 | 13.61143 | 38.99814 | 35913 ft | 453 kts | 353° |
| 2026-05-05 11:04 | 13.67411 | 38.99128 | 35915 ft | 453 kts | 353° |
| 2026-05-05 11:05 | 13.73677 | 38.98438 | 35916 ft | 453 kts | 353° |
| 2026-05-05 11:05 | 13.79941 | 38.97744 | 35920 ft | 453 kts | 353° |
| 2026-05-05 11:06 | 13.85150 | 38.97169 | 35924 ft | 453 kts | 352° |
| 2026-05-05 11:06 | 13.91416 | 38.96481 | 35921 ft | 453 kts | 353° |
| 2026-05-05 11:07 | 13.98699 | 38.95681 | 35932 ft | 453 kts | 353° |
| 2026-05-05 11:07 | 14.04968 | 38.94994 | 35934 ft | 453 kts | 353° |
| 2026-05-05 11:08 | 14.10216 | 38.94414 | 35935 ft | 453 kts | 353° |
| 2026-05-05 11:08 | 14.16439 | 38.93721 | 35935 ft | 453 kts | 353° |
| 2026-05-05 11:09 | 14.22714 | 38.93032 | 35929 ft | 453 kts | 352° |
| 2026-05-05 11:09 | 14.28987 | 38.92340 | 35933 ft | 453 kts | 353° |
| 2026-05-05 11:10 | 14.35258 | 38.91644 | 35930 ft | 453 kts | 352° |
| 2026-05-05 11:10 | 14.41529 | 38.90945 | 35922 ft | 454 kts | 352° |
| 2026-05-05 11:11 | 14.47803 | 38.90247 | 35919 ft | 453 kts | 353° |
| 2026-05-05 11:11 | 14.54118 | 38.90004 | 35915 ft | 455 kts | 359° |
| 2026-05-05 11:12 | 14.60446 | 38.90016 | 35918 ft | 455 kts | 359° |
| 2026-05-05 11:12 | 14.66774 | 38.90027 | 35927 ft | 454 kts | 359° |
| 2026-05-05 11:13 | 14.73093 | 38.90029 | 35932 ft | 454 kts | 359° |
| 2026-05-05 11:13 | 14.79409 | 38.90034 | 35941 ft | 454 kts | 359° |
| 2026-05-05 11:14 | 14.85726 | 38.90048 | 35948 ft | 454 kts | 359° |
| 2026-05-05 11:14 | 14.92043 | 38.90054 | 35962 ft | 454 kts | 359° |
| 2026-05-05 11:15 | 14.98364 | 38.90059 | 35970 ft | 454 kts | 359° |
| 2026-05-05 11:15 | 15.04682 | 38.90064 | 35974 ft | 454 kts | 359° |
| 2026-05-05 11:16 | 15.11000 | 38.90065 | 35981 ft | 454 kts | 359° |
| 2026-05-05 11:16 | 15.17320 | 38.90074 | 35988 ft | 454 kts | 359° |
| 2026-05-05 11:17 | 15.23601 | 38.90082 | 35993 ft | 454 kts | 359° |
| 2026-05-05 11:17 | 15.29920 | 38.90092 | 35984 ft | 454 kts | 359° |
| 2026-05-05 11:18 | 15.36239 | 38.90272 | 35984 ft | 455 kts | 1° |
| 2026-05-05 11:18 | 15.42556 | 38.90564 | 35975 ft | 455 kts | 1° |
| 2026-05-05 11:19 | 15.48883 | 38.90839 | 35966 ft | 455 kts | 0° |
| 2026-05-05 11:19 | 15.55203 | 38.91069 | 35957 ft | 455 kts | 0° |
| 2026-05-05 11:20 | 15.61521 | 38.91280 | 35951 ft | 454 kts | 0° |
| 2026-05-05 11:20 | 15.67843 | 38.91499 | 35937 ft | 454 kts | 0° |
| 2026-05-05 11:21 | 15.74157 | 38.91723 | 35932 ft | 454 kts | 0° |
| 2026-05-05 11:21 | 15.80475 | 38.91951 | 35920 ft | 454 kts | 0° |
| 2026-05-05 11:22 | 15.86795 | 38.92183 | 35911 ft | 455 kts | 0° |
| 2026-05-05 11:22 | 15.93116 | 38.92408 | 35903 ft | 454 kts | 0° |
| 2026-05-05 11:23 | 15.99398 | 38.92630 | 35896 ft | 455 kts | 0° |
| 2026-05-05 11:23 | 16.05719 | 38.92860 | 35889 ft | 455 kts | 0° |
| 2026-05-05 11:24 | 16.12045 | 38.93091 | 35883 ft | 455 kts | 0° |
| 2026-05-05 11:24 | 16.18362 | 38.93322 | 35881 ft | 454 kts | 0° |
| 2026-05-05 11:25 | 16.24680 | 38.93550 | 35871 ft | 454 kts | 0° |
| 2026-05-05 11:25 | 16.30994 | 38.93775 | 35868 ft | 454 kts | 0° |
| 2026-05-05 11:26 | 16.37308 | 38.94000 | 35869 ft | 454 kts | 0° |
| 2026-05-05 11:26 | 16.43619 | 38.94231 | 35865 ft | 454 kts | 0° |
| 2026-05-05 11:27 | 16.49934 | 38.94462 | 35866 ft | 454 kts | 360° |
| 2026-05-05 11:27 | 16.56255 | 38.94694 | 35861 ft | 454 kts | 0° |
| 2026-05-05 11:28 | 16.62573 | 38.94923 | 35859 ft | 454 kts | 360° |
| 2026-05-05 11:28 | 16.68894 | 38.95142 | 35856 ft | 455 kts | 360° |
| 2026-05-05 11:29 | 16.75218 | 38.95361 | 35861 ft | 455 kts | 360° |
| 2026-05-05 11:29 | 16.81505 | 38.95583 | 35856 ft | 455 kts | 360° |
| 2026-05-05 11:30 | 16.87830 | 38.95808 | 35857 ft | 455 kts | 359° |
| 2026-05-05 11:30 | 16.94156 | 38.96037 | 35857 ft | 455 kts | 360° |
| 2026-05-05 11:31 | 17.00485 | 38.96275 | 35857 ft | 455 kts | 360° |
| 2026-05-05 11:31 | 17.06813 | 38.96505 | 35857 ft | 455 kts | 359° |
| 2026-05-05 11:32 | 17.13142 | 38.96737 | 35856 ft | 455 kts | 360° |
| 2026-05-05 11:32 | 17.19486 | 38.96969 | 35852 ft | 456 kts | 360° |
| 2026-05-05 11:33 | 17.25816 | 38.97205 | 35855 ft | 456 kts | 360° |
| 2026-05-05 11:33 | 17.32158 | 38.97440 | 35853 ft | 456 kts | 360° |
| 2026-05-05 11:34 | 17.38496 | 38.97675 | 35855 ft | 456 kts | 359° |
| 2026-05-05 11:34 | 17.44844 | 38.97902 | 35856 ft | 456 kts | 359° |
| 2026-05-05 11:35 | 17.51190 | 38.98125 | 35854 ft | 456 kts | 360° |
| 2026-05-05 11:35 | 17.57544 | 38.98351 | 35858 ft | 457 kts | 360° |
| 2026-05-05 11:36 | 17.63855 | 38.98581 | 35863 ft | 457 kts | 359° |
| 2026-05-05 11:36 | 17.70209 | 38.98810 | 35861 ft | 457 kts | 359° |
| 2026-05-05 11:37 | 17.76564 | 38.99037 | 35861 ft | 457 kts | 359° |
| 2026-05-05 11:37 | 17.82920 | 38.99261 | 35861 ft | 457 kts | 359° |
| 2026-05-05 11:38 | 17.89282 | 38.99487 | 35859 ft | 458 kts | 359° |
| 2026-05-05 11:38 | 17.95650 | 38.99722 | 35860 ft | 458 kts | 359° |
| 2026-05-05 11:39 | 18.02018 | 38.99951 | 35859 ft | 458 kts | 359° |
| 2026-05-05 11:39 | 18.08389 | 39.00185 | 35860 ft | 458 kts | 359° |
| 2026-05-05 11:40 | 18.14764 | 39.00418 | 35858 ft | 458 kts | 359° |
| 2026-05-05 11:40 | 18.21142 | 39.00678 | 35860 ft | 459 kts | 0° |
| 2026-05-05 11:41 | 18.27516 | 39.01046 | 35863 ft | 459 kts | 0° |
| 2026-05-05 11:41 | 18.33894 | 39.01437 | 35864 ft | 459 kts | 0° |
| 2026-05-05 11:42 | 18.40280 | 39.01799 | 35862 ft | 459 kts | 0° |
| 2026-05-05 11:42 | 18.46662 | 39.02137 | 35862 ft | 459 kts | 360° |
| 2026-05-05 11:43 | 18.53009 | 39.02480 | 35865 ft | 460 kts | 360° |
| 2026-05-05 11:43 | 18.59399 | 39.02840 | 35867 ft | 460 kts | 360° |
| 2026-05-05 11:44 | 18.65786 | 39.03193 | 35868 ft | 460 kts | 360° |
| 2026-05-05 11:44 | 18.72178 | 39.03541 | 35866 ft | 460 kts | 360° |
| 2026-05-05 11:45 | 18.78570 | 39.03898 | 35867 ft | 460 kts | 360° |
| 2026-05-05 11:45 | 18.84966 | 39.04253 | 35862 ft | 460 kts | 359° |
| 2026-05-05 11:46 | 18.91368 | 39.04608 | 35861 ft | 461 kts | 359° |
| 2026-05-05 11:46 | 18.97774 | 39.04970 | 35866 ft | 461 kts | 359° |
| 2026-05-05 11:47 | 19.04185 | 39.05323 | 35862 ft | 461 kts | 359° |
| 2026-05-05 11:47 | 19.10597 | 39.05634 | 35858 ft | 459 kts | 355° |
| 2026-05-05 11:48 | 19.19855 | 39.03720 | 35853 ft | 452 kts | 340° |
| 2026-05-05 11:48 | 19.25887 | 39.01998 | 35857 ft | 452 kts | 340° |
| 2026-05-05 11:49 | 19.31958 | 39.00273 | 35857 ft | 452 kts | 340° |
| 2026-05-05 11:49 | 19.38031 | 38.98544 | 35860 ft | 452 kts | 340° |
| 2026-05-05 11:50 | 19.44106 | 38.96807 | 35857 ft | 452 kts | 340° |
| 2026-05-05 11:50 | 19.50176 | 38.95068 | 35857 ft | 452 kts | 340° |
| 2026-05-05 11:51 | 19.56262 | 38.93341 | 35861 ft | 453 kts | 340° |
| 2026-05-05 11:51 | 19.62347 | 38.91602 | 35858 ft | 453 kts | 340° |
| 2026-05-05 11:52 | 19.68428 | 38.89852 | 35863 ft | 453 kts | 340° |
| 2026-05-05 11:52 | 19.74516 | 38.88115 | 35860 ft | 453 kts | 340° |
| 2026-05-05 11:53 | 19.80606 | 38.86375 | 35857 ft | 453 kts | 339° |
| 2026-05-05 11:53 | 19.86654 | 38.84635 | 35859 ft | 453 kts | 339° |
| 2026-05-05 11:54 | 19.92745 | 38.82888 | 35860 ft | 453 kts | 339° |
| 2026-05-05 11:54 | 19.98839 | 38.81137 | 35856 ft | 453 kts | 339° |
| 2026-05-05 11:55 | 20.04926 | 38.79387 | 35856 ft | 453 kts | 339° |
| 2026-05-05 11:55 | 20.11015 | 38.77639 | 35858 ft | 453 kts | 339° |
| 2026-05-05 11:56 | 20.17101 | 38.75900 | 35860 ft | 453 kts | 339° |
| 2026-05-05 11:56 | 20.23191 | 38.74150 | 35863 ft | 453 kts | 339° |
| 2026-05-05 11:57 | 20.29274 | 38.72396 | 35868 ft | 453 kts | 339° |
| 2026-05-05 11:57 | 20.34325 | 38.70935 | 35867 ft | 452 kts | 338° |
| 2026-05-05 11:58 | 20.40398 | 38.69175 | 35868 ft | 452 kts | 338° |
| 2026-05-05 11:58 | 20.47456 | 38.67135 | 35868 ft | 452 kts | 338° |
| 2026-05-05 11:59 | 20.53527 | 38.65381 | 35867 ft | 452 kts | 338° |
| 2026-05-05 11:59 | 20.58570 | 38.63920 | 35872 ft | 451 kts | 338° |
| 2026-05-05 12:00 | 20.64629 | 38.62159 | 35874 ft | 451 kts | 338° |
| 2026-05-05 12:00 | 20.70683 | 38.60400 | 35879 ft | 451 kts | 338° |
| 2026-05-05 12:01 | 20.76731 | 38.58646 | 35887 ft | 450 kts | 338° |
| 2026-05-05 12:01 | 20.82930 | 38.57439 | 35868 ft | 463 kts | 353° |
| 2026-05-05 12:02 | 20.86174 | 38.57710 | 35865 ft | 473 kts | 5° |
| 2026-05-05 12:02 | 20.89374 | 38.58659 | 35868 ft | 482 kts | 17° |
| 2026-05-05 12:02 | 20.95294 | 38.62199 | 35858 ft | 491 kts | 27° |